sensor_id;sensor_type;location;lat;lon;timestamp;temperature;humidity
25582;DHT22;13462;50.764;4.332;2022-09-20T00:01:25;11.20;99.90
25582;DHT22;13462;50.764;4.332;2022-09-20T00:03:57;11.20;99.90
25582;DHT22;13462;50.764;4.332;2022-09-20T00:06:30;11.20;99.90
25582;DHT22;13462;50.764;4.332;2022-09-20T00:09:03;11.20;99.90
25582;DHT22;13462;50.764;4.332;2022-09-20T00:11:31;11.10;99.90
25582;DHT22;13462;50.764;4.332;2022-09-20T00:13:59;11.00;99.90
25582;DHT22;13462;50.764;4.332;2022-09-20T00:16:31;11.00;99.90
25582;DHT22;13462;50.764;4.332;2022-09-20T00:18:57;11.00;99.90
25582;DHT22;13462;50.764;4.332;2022-09-20T00:21:26;10.90;99.90
25582;DHT22;13462;50.764;4.332;2022-09-20T00:23:53;10.80;99.90
25582;DHT22;13462;50.764;4.332;2022-09-20T00:26:21;10.70;99.90
25582;DHT22;13462;50.764;4.332;2022-09-20T00:28:48;10.60;99.90
25582;DHT22;13462;50.764;4.332;2022-09-20T00:31:14;10.60;99.90
25582;DHT22;13462;50.764;4.332;2022-09-20T00:33:47;10.60;99.90
25582;DHT22;13462;50.764;4.332;2022-09-20T00:39:29;10.40;99.90
25582;DHT22;13462;50.764;4.332;2022-09-20T00:41:58;10.30;99.90
25582;DHT22;13462;50.764;4.332;2022-09-20T00:50:44;10.20;99.90
25582;DHT22;13462;50.764;4.332;2022-09-20T00:53:26;10.30;99.90
25582;DHT22;13462;50.764;4.332;2022-09-20T00:56:03;10.30;99.90
25582;DHT22;13462;50.764;4.332;2022-09-20T00:58:33;10.20;99.90
25582;DHT22;13462;50.764;4.332;2022-09-20T01:01:00;10.20;99.90
25582;DHT22;13462;50.764;4.332;2022-09-20T01:03:30;10.20;99.90
25582;DHT22;13462;50.764;4.332;2022-09-20T01:06:01;10.20;99.90
25582;DHT22;13462;50.764;4.332;2022-09-20T01:08:29;10.20;99.90
25582;DHT22;13462;50.764;4.332;2022-09-20T01:10:56;10.20;99.90
25582;DHT22;13462;50.764;4.332;2022-09-20T01:13:22;10.20;99.90
25582;DHT22;13462;50.764;4.332;2022-09-20T01:15:48;10.20;99.90
25582;DHT22;13462;50.764;4.332;2022-09-20T01:18:15;10.20;99.90
25582;DHT22;13462;50.764;4.332;2022-09-20T01:20:43;10.20;99.90
25582;DHT22;13462;50.764;4.332;2022-09-20T01:32:45;10.40;99.90
25582;DHT22;13462;50.764;4.332;2022-09-20T01:35:16;10.50;99.90
25582;DHT22;13462;50.764;4.332;2022-09-20T01:46:34;10.40;99.90
25582;DHT22;13462;50.764;4.332;2022-09-20T01:49:22;10.40;99.90
25582;DHT22;13462;50.764;4.332;2022-09-20T01:57:56;10.40;99.90
25582;DHT22;13462;50.764;4.332;2022-09-20T02:00:29;10.40;99.90
25582;DHT22;13462;50.764;4.332;2022-09-20T02:06:12;10.40;99.90
25582;DHT22;13462;50.764;4.332;2022-09-20T02:09:11;10.50;99.90
25582;DHT22;13462;50.764;4.332;2022-09-20T02:12:06;10.40;99.90
25582;DHT22;13462;50.764;4.332;2022-09-20T02:17:17;10.40;99.90
25582;DHT22;13462;50.764;4.332;2022-09-20T02:20:29;10.30;99.90
25582;DHT22;13462;50.764;4.332;2022-09-20T02:31:49;10.40;99.90
25582;DHT22;13462;50.764;4.332;2022-09-20T02:39:35;10.30;99.90
25582;DHT22;13462;50.764;4.332;2022-09-20T02:42:20;10.20;99.90
25582;DHT22;13462;50.764;4.332;2022-09-20T02:48:02;10.20;99.90
25582;DHT22;13462;50.764;4.332;2022-09-20T02:53:38;10.20;99.90
25582;DHT22;13462;50.764;4.332;2022-09-20T02:59:24;10.30;99.90
25582;DHT22;13462;50.764;4.332;2022-09-20T03:01:59;10.30;99.90
25582;DHT22;13462;50.764;4.332;2022-09-20T03:05:04;10.30;99.90
25582;DHT22;13462;50.764;4.332;2022-09-20T03:22:47;10.30;99.90
25582;DHT22;13462;50.764;4.332;2022-09-20T03:27:49;10.40;99.90
25582;DHT22;13462;50.764;4.332;2022-09-20T03:30:24;10.40;99.90
25582;DHT22;13462;50.764;4.332;2022-09-20T03:38:50;10.40;99.90
25582;DHT22;13462;50.764;4.332;2022-09-20T03:44:11;10.40;99.90
25582;DHT22;13462;50.764;4.332;2022-09-20T03:46:44;10.40;99.90
25582;DHT22;13462;50.764;4.332;2022-09-20T04:11:22;11.00;99.90
25582;DHT22;13462;50.764;4.332;2022-09-20T04:14:25;10.80;99.90
25582;DHT22;13462;50.764;4.332;2022-09-20T04:17:21;10.80;99.90
25582;DHT22;13462;50.764;4.332;2022-09-20T04:23:49;10.70;99.90
25582;DHT22;13462;50.764;4.332;2022-09-20T04:26:30;10.80;99.90
25582;DHT22;13462;50.764;4.332;2022-09-20T04:31:41;10.70;99.90
25582;DHT22;13462;50.764;4.332;2022-09-20T04:34:17;10.80;99.90
25582;DHT22;13462;50.764;4.332;2022-09-20T04:36:56;10.60;99.90
25582;DHT22;13462;50.764;4.332;2022-09-20T04:39:46;10.40;99.90
25582;DHT22;13462;50.764;4.332;2022-09-20T04:42:29;10.40;99.90
25582;DHT22;13462;50.764;4.332;2022-09-20T05:08:08;9.90;99.90
25582;DHT22;13462;50.764;4.332;2022-09-20T05:13:35;9.90;99.90
25582;DHT22;13462;50.764;4.332;2022-09-20T05:16:24;9.80;99.90
25582;DHT22;13462;50.764;4.332;2022-09-20T05:31:01;9.70;99.90
25582;DHT22;13462;50.764;4.332;2022-09-20T05:41:57;9.80;99.90
25582;DHT22;13462;50.764;4.332;2022-09-20T05:47:55;10.00;99.90
25582;DHT22;13462;50.764;4.332;2022-09-20T05:50:36;9.90;99.90
25582;DHT22;13462;50.764;4.332;2022-09-20T05:53:34;10.00;99.90
25582;DHT22;13462;50.764;4.332;2022-09-20T05:59:56;9.90;99.90
25582;DHT22;13462;50.764;4.332;2022-09-20T06:17:32;10.20;99.90
25582;DHT22;13462;50.764;4.332;2022-09-20T06:20:31;10.20;99.90
25582;DHT22;13462;50.764;4.332;2022-09-20T06:23:03;10.20;99.90
25582;DHT22;13462;50.764;4.332;2022-09-20T06:25:51;10.30;99.90
25582;DHT22;13462;50.764;4.332;2022-09-20T06:28:33;10.40;99.90
25582;DHT22;13462;50.764;4.332;2022-09-20T06:31:00;10.30;99.90
25582;DHT22;13462;50.764;4.332;2022-09-20T06:34:07;10.20;99.90
25582;DHT22;13462;50.764;4.332;2022-09-20T06:36:41;10.20;99.90
25582;DHT22;13462;50.764;4.332;2022-09-20T06:45:03;10.50;99.90
25582;DHT22;13462;50.764;4.332;2022-09-20T06:47:32;10.80;99.90
25582;DHT22;13462;50.764;4.332;2022-09-20T06:49:58;11.00;99.90
25582;DHT22;13462;50.764;4.332;2022-09-20T06:52:24;11.30;99.90
25582;DHT22;13462;50.764;4.332;2022-09-20T06:54:52;11.50;99.90
25582;DHT22;13462;50.764;4.332;2022-09-20T06:58:10;11.70;99.90
25582;DHT22;13462;50.764;4.332;2022-09-20T07:00:26;11.60;99.90
25582;DHT22;13462;50.764;4.332;2022-09-20T07:06:05;11.50;99.90
25582;DHT22;13462;50.764;4.332;2022-09-20T07:08:31;11.60;99.90
25582;DHT22;13462;50.764;4.332;2022-09-20T07:11:05;11.60;99.90
25582;DHT22;13462;50.764;4.332;2022-09-20T07:13:50;11.90;99.90
25582;DHT22;13462;50.764;4.332;2022-09-20T07:16:27;12.30;99.90
25582;DHT22;13462;50.764;4.332;2022-09-20T07:18:53;12.30;99.90
25582;DHT22;13462;50.764;4.332;2022-09-20T07:21:39;12.40;99.90
25582;DHT22;13462;50.764;4.332;2022-09-20T07:24:10;12.80;99.90
25582;DHT22;13462;50.764;4.332;2022-09-20T07:26:38;13.20;99.90
25582;DHT22;13462;50.764;4.332;2022-09-20T07:29:08;14.30;99.90
25582;DHT22;13462;50.764;4.332;2022-09-20T07:34:37;18.10;99.90
25582;DHT22;13462;50.764;4.332;2022-09-20T07:37:03;20.30;99.90
25582;DHT22;13462;50.764;4.332;2022-09-20T07:39:29;21.70;99.90
25582;DHT22;13462;50.764;4.332;2022-09-20T07:41:55;22.80;99.90
25582;DHT22;13462;50.764;4.332;2022-09-20T07:44:21;21.70;99.10
25582;DHT22;13462;50.764;4.332;2022-09-20T07:46:50;22.70;97.60
25582;DHT22;13462;50.764;4.332;2022-09-20T07:49:17;24.10;97.40
25582;DHT22;13462;50.764;4.332;2022-09-20T07:51:43;26.40;92.70
25582;DHT22;13462;50.764;4.332;2022-09-20T07:54:09;26.30;86.60
25582;DHT22;13462;50.764;4.332;2022-09-20T07:56:35;26.40;88.90
25582;DHT22;13462;50.764;4.332;2022-09-20T07:59:01;24.80;88.90
25582;DHT22;13462;50.764;4.332;2022-09-20T08:01:26;24.20;90.70
25582;DHT22;13462;50.764;4.332;2022-09-20T08:03:52;24.50;90.70
25582;DHT22;13462;50.764;4.332;2022-09-20T08:09:01;25.70;90.50
25582;DHT22;13462;50.764;4.332;2022-09-20T08:11:26;27.80;88.00
25582;DHT22;13462;50.764;4.332;2022-09-20T08:13:55;28.70;82.80
25582;DHT22;13462;50.764;4.332;2022-09-20T08:16:24;29.60;80.40
25582;DHT22;13462;50.764;4.332;2022-09-20T08:18:53;29.70;74.90
25582;DHT22;13462;50.764;4.332;2022-09-20T08:21:24;30.30;73.90
25582;DHT22;13462;50.764;4.332;2022-09-20T08:23:51;29.00;73.30
25582;DHT22;13462;50.764;4.332;2022-09-20T08:26:20;28.00;77.70
25582;DHT22;13462;50.764;4.332;2022-09-20T08:28:49;25.20;80.60
25582;DHT22;13462;50.764;4.332;2022-09-20T08:31:18;24.10;85.40
25582;DHT22;13462;50.764;4.332;2022-09-20T08:33:45;24.20;90.30
25582;DHT22;13462;50.764;4.332;2022-09-20T08:36:17;24.50;86.00
25582;DHT22;13462;50.764;4.332;2022-09-20T08:38:43;26.60;84.70
25582;DHT22;13462;50.764;4.332;2022-09-20T08:41:45;28.60;78.80
25582;DHT22;13462;50.764;4.332;2022-09-20T08:44:16;29.30;72.90
25582;DHT22;13462;50.764;4.332;2022-09-20T08:47:20;29.80;73.60
25582;DHT22;13462;50.764;4.332;2022-09-20T08:49:47;30.70;73.70
25582;DHT22;13462;50.764;4.332;2022-09-20T08:52:17;30.30;67.70
25582;DHT22;13462;50.764;4.332;2022-09-20T08:54:44;27.90;75.20
25582;DHT22;13462;50.764;4.332;2022-09-20T08:57:16;27.10;74.70
25582;DHT22;13462;50.764;4.332;2022-09-20T08:59:43;27.80;78.20
25582;DHT22;13462;50.764;4.332;2022-09-20T09:02:16;28.50;73.40
25582;DHT22;13462;50.764;4.332;2022-09-20T09:04:53;28.00;73.10
25582;DHT22;13462;50.764;4.332;2022-09-20T09:07:20;28.40;76.20
25582;DHT22;13462;50.764;4.332;2022-09-20T09:10:08;29.40;75.30
25582;DHT22;13462;50.764;4.332;2022-09-20T09:12:35;31.10;71.70
25582;DHT22;13462;50.764;4.332;2022-09-20T09:18:10;32.00;64.20
25582;DHT22;13462;50.764;4.332;2022-09-20T09:21:02;31.30;63.30
25582;DHT22;13462;50.764;4.332;2022-09-20T09:23:38;30.20;68.10
25582;DHT22;13462;50.764;4.332;2022-09-20T09:26:17;30.80;65.60
25582;DHT22;13462;50.764;4.332;2022-09-20T09:29:08;29.30;68.10
25582;DHT22;13462;50.764;4.332;2022-09-20T09:31:37;28.10;70.10
25582;DHT22;13462;50.764;4.332;2022-09-20T09:34:26;28.00;73.70
25582;DHT22;13462;50.764;4.332;2022-09-20T09:36:51;27.30;75.10
25582;DHT22;13462;50.764;4.332;2022-09-20T09:39:27;26.80;74.50
25582;DHT22;13462;50.764;4.332;2022-09-20T09:41:54;26.80;76.10
25582;DHT22;13462;50.764;4.332;2022-09-20T09:44:24;26.10;78.20
25582;DHT22;13462;50.764;4.332;2022-09-20T09:46:54;24.80;80.70
25582;DHT22;13462;50.764;4.332;2022-09-20T09:49:24;26.40;83.50
25582;DHT22;13462;50.764;4.332;2022-09-20T09:52:00;27.60;77.20
25582;DHT22;13462;50.764;4.332;2022-09-20T09:54:34;27.70;74.80
25582;DHT22;13462;50.764;4.332;2022-09-20T10:00:22;31.20;69.70
25582;DHT22;13462;50.764;4.332;2022-09-20T10:08:39;31.10;62.80
25582;DHT22;13462;50.764;4.332;2022-09-20T10:11:11;30.70;62.20
25582;DHT22;13462;50.764;4.332;2022-09-20T10:16:24;29.50;64.20
25582;DHT22;13462;50.764;4.332;2022-09-20T10:21:54;26.40;71.70
25582;DHT22;13462;50.764;4.332;2022-09-20T10:30:23;23.00;84.50
25582;DHT22;13462;50.764;4.332;2022-09-20T10:36:03;21.60;91.40
25582;DHT22;13462;50.764;4.332;2022-09-20T10:38:37;21.30;90.80
25582;DHT22;13462;50.764;4.332;2022-09-20T10:41:20;21.00;91.60
25582;DHT22;13462;50.764;4.332;2022-09-20T10:44:35;20.80;93.10
25582;DHT22;13462;50.764;4.332;2022-09-20T10:47:16;20.60;93.50
25582;DHT22;13462;50.764;4.332;2022-09-20T10:52:44;20.90;93.00
25582;DHT22;13462;50.764;4.332;2022-09-20T10:55:31;20.70;93.20
25582;DHT22;13462;50.764;4.332;2022-09-20T11:06:58;20.50;94.60
25582;DHT22;13462;50.764;4.332;2022-09-20T11:09:56;20.30;95.40
25582;DHT22;13462;50.764;4.332;2022-09-20T11:12:33;20.10;95.30
25582;DHT22;13462;50.764;4.332;2022-09-20T11:15:11;20.00;96.00
25582;DHT22;13462;50.764;4.332;2022-09-20T11:17:44;19.70;97.40
25582;DHT22;13462;50.764;4.332;2022-09-20T11:20:27;19.60;97.50
25582;DHT22;13462;50.764;4.332;2022-09-20T11:23:13;19.40;98.40
25582;DHT22;13462;50.764;4.332;2022-09-20T11:25:49;19.20;99.90
25582;DHT22;13462;50.764;4.332;2022-09-20T11:28:36;18.90;99.90
25582;DHT22;13462;50.764;4.332;2022-09-20T11:31:33;18.70;99.90
25582;DHT22;13462;50.764;4.332;2022-09-20T11:36:57;18.10;99.90
25582;DHT22;13462;50.764;4.332;2022-09-20T11:42:12;17.60;99.90
25582;DHT22;13462;50.764;4.332;2022-09-20T11:44:40;17.50;99.90
25582;DHT22;13462;50.764;4.332;2022-09-20T11:47:16;17.40;99.90
25582;DHT22;13462;50.764;4.332;2022-09-20T11:52:57;17.30;99.90
25582;DHT22;13462;50.764;4.332;2022-09-20T11:55:59;17.50;99.90
25582;DHT22;13462;50.764;4.332;2022-09-20T11:58:26;17.70;99.90
25582;DHT22;13462;50.764;4.332;2022-09-20T12:00:55;18.20;99.90
25582;DHT22;13462;50.764;4.332;2022-09-20T12:03:38;18.70;99.90
25582;DHT22;13462;50.764;4.332;2022-09-20T12:06:25;19.20;99.90
25582;DHT22;13462;50.764;4.332;2022-09-20T12:08:54;19.70;99.90
25582;DHT22;13462;50.764;4.332;2022-09-20T12:11:36;20.20;99.90
25582;DHT22;13462;50.764;4.332;2022-09-20T12:14:16;20.50;99.90
25582;DHT22;13462;50.764;4.332;2022-09-20T12:16:45;20.70;99.90
25582;DHT22;13462;50.764;4.332;2022-09-20T12:19:13;20.80;99.90
25582;DHT22;13462;50.764;4.332;2022-09-20T12:24:37;20.80;99.90
25582;DHT22;13462;50.764;4.332;2022-09-20T12:30:19;21.70;98.70
25582;DHT22;13462;50.764;4.332;2022-09-20T12:32:51;23.20;94.70
25582;DHT22;13462;50.764;4.332;2022-09-20T12:38:31;26.40;84.20
25582;DHT22;13462;50.764;4.332;2022-09-20T12:41:10;27.60;83.30
25582;DHT22;13462;50.764;4.332;2022-09-20T12:44:00;27.70;77.30
25582;DHT22;13462;50.764;4.332;2022-09-20T12:46:36;27.20;79.50
25582;DHT22;13462;50.764;4.332;2022-09-20T12:49:33;26.10;76.40
25582;DHT22;13462;50.764;4.332;2022-09-20T12:52:30;25.40;82.50
25582;DHT22;13462;50.764;4.332;2022-09-20T12:58:04;23.90;88.30
25582;DHT22;13462;50.764;4.332;2022-09-20T13:03:25;23.30;91.50
25582;DHT22;13462;50.764;4.332;2022-09-20T13:11:37;22.20;93.00
25582;DHT22;13462;50.764;4.332;2022-09-20T13:14:19;22.00;91.30
25582;DHT22;13462;50.764;4.332;2022-09-20T13:19:42;21.60;92.80
25582;DHT22;13462;50.764;4.332;2022-09-20T13:25:25;20.70;94.90
25582;DHT22;13462;50.764;4.332;2022-09-20T13:30:46;19.80;97.10
25582;DHT22;13462;50.764;4.332;2022-09-20T13:33:22;19.60;98.90
25582;DHT22;13462;50.764;4.332;2022-09-20T13:35:56;19.50;99.20
25582;DHT22;13462;50.764;4.332;2022-09-20T13:38:26;19.60;99.30
25582;DHT22;13462;50.764;4.332;2022-09-20T13:41:06;19.50;99.40
25582;DHT22;13462;50.764;4.332;2022-09-20T13:43:45;19.30;98.30
25582;DHT22;13462;50.764;4.332;2022-09-20T13:46:23;19.10;99.90
25582;DHT22;13462;50.764;4.332;2022-09-20T13:48:57;18.90;99.90
25582;DHT22;13462;50.764;4.332;2022-09-20T13:51:26;18.90;99.90
25582;DHT22;13462;50.764;4.332;2022-09-20T13:53:53;18.80;99.90
25582;DHT22;13462;50.764;4.332;2022-09-20T13:56:38;18.80;99.90
25582;DHT22;13462;50.764;4.332;2022-09-20T13:59:14;18.60;99.90
25582;DHT22;13462;50.764;4.332;2022-09-20T14:01:50;18.70;99.90
25582;DHT22;13462;50.764;4.332;2022-09-20T14:04:23;18.70;99.90
25582;DHT22;13462;50.764;4.332;2022-09-20T14:06:51;18.50;99.90
25582;DHT22;13462;50.764;4.332;2022-09-20T14:09:33;18.40;99.90
25582;DHT22;13462;50.764;4.332;2022-09-20T14:12:03;18.30;99.90
25582;DHT22;13462;50.764;4.332;2022-09-20T14:14:30;18.50;99.90
25582;DHT22;13462;50.764;4.332;2022-09-20T14:17:00;18.50;99.90
25582;DHT22;13462;50.764;4.332;2022-09-20T14:19:40;18.70;99.90
25582;DHT22;13462;50.764;4.332;2022-09-20T14:22:07;18.90;99.90
25582;DHT22;13462;50.764;4.332;2022-09-20T14:25:20;19.00;99.90
25582;DHT22;13462;50.764;4.332;2022-09-20T14:28:17;18.60;99.90
25582;DHT22;13462;50.764;4.332;2022-09-20T14:31:05;18.60;99.90
25582;DHT22;13462;50.764;4.332;2022-09-20T14:33:40;18.50;99.90
25582;DHT22;13462;50.764;4.332;2022-09-20T14:36:33;18.70;99.90
25582;DHT22;13462;50.764;4.332;2022-09-20T14:39:02;18.50;99.90
25582;DHT22;13462;50.764;4.332;2022-09-20T14:41:34;18.60;99.90
25582;DHT22;13462;50.764;4.332;2022-09-20T14:44:02;18.70;99.90
25582;DHT22;13462;50.764;4.332;2022-09-20T14:46:32;18.70;99.90
25582;DHT22;13462;50.764;4.332;2022-09-20T14:57:40;18.50;99.90
25582;DHT22;13462;50.764;4.332;2022-09-20T15:00:14;18.60;99.90
25582;DHT22;13462;50.764;4.332;2022-09-20T15:02:42;18.50;99.90
25582;DHT22;13462;50.764;4.332;2022-09-20T15:05:18;18.60;99.90
25582;DHT22;13462;50.764;4.332;2022-09-20T15:07:45;18.60;99.90
25582;DHT22;13462;50.764;4.332;2022-09-20T15:10:12;18.50;99.90
25582;DHT22;13462;50.764;4.332;2022-09-20T15:12:37;18.40;99.90
25582;DHT22;13462;50.764;4.332;2022-09-20T15:15:03;18.40;99.90
25582;DHT22;13462;50.764;4.332;2022-09-20T15:17:29;18.50;99.90
25582;DHT22;13462;50.764;4.332;2022-09-20T15:19:55;18.60;99.90
25582;DHT22;13462;50.764;4.332;2022-09-20T15:22:22;18.70;99.90
25582;DHT22;13462;50.764;4.332;2022-09-20T15:24:47;18.70;99.90
25582;DHT22;13462;50.764;4.332;2022-09-20T15:27:13;18.50;99.90
25582;DHT22;13462;50.764;4.332;2022-09-20T15:29:40;18.40;99.90
25582;DHT22;13462;50.764;4.332;2022-09-20T15:32:08;18.10;99.90
25582;DHT22;13462;50.764;4.332;2022-09-20T15:34:34;18.10;99.90
25582;DHT22;13462;50.764;4.332;2022-09-20T15:37:00;18.00;99.90
25582;DHT22;13462;50.764;4.332;2022-09-20T15:39:25;18.00;99.90
25582;DHT22;13462;50.764;4.332;2022-09-20T15:41:52;17.80;99.90
25582;DHT22;13462;50.764;4.332;2022-09-20T15:44:18;17.80;99.90
25582;DHT22;13462;50.764;4.332;2022-09-20T15:46:44;17.70;99.90
25582;DHT22;13462;50.764;4.332;2022-09-20T15:49:11;17.60;99.90
25582;DHT22;13462;50.764;4.332;2022-09-20T15:51:37;17.70;99.90
25582;DHT22;13462;50.764;4.332;2022-09-20T15:54:04;17.60;99.90
25582;DHT22;13462;50.764;4.332;2022-09-20T15:56:33;17.60;99.90
25582;DHT22;13462;50.764;4.332;2022-09-20T15:59:02;17.60;99.90
25582;DHT22;13462;50.764;4.332;2022-09-20T16:01:37;17.60;99.90
25582;DHT22;13462;50.764;4.332;2022-09-20T16:04:06;17.60;99.90
25582;DHT22;13462;50.764;4.332;2022-09-20T16:06:32;17.60;99.90
25582;DHT22;13462;50.764;4.332;2022-09-20T16:08:58;17.50;99.90
25582;DHT22;13462;50.764;4.332;2022-09-20T16:11:24;17.50;99.90
25582;DHT22;13462;50.764;4.332;2022-09-20T16:13:56;17.40;99.90
25582;DHT22;13462;50.764;4.332;2022-09-20T16:16:23;17.40;99.90
25582;DHT22;13462;50.764;4.332;2022-09-20T16:18:49;17.40;99.90
25582;DHT22;13462;50.764;4.332;2022-09-20T16:21:34;17.30;99.90
25582;DHT22;13462;50.764;4.332;2022-09-20T16:24:01;17.30;99.90
25582;DHT22;13462;50.764;4.332;2022-09-20T16:26:27;17.30;99.90
25582;DHT22;13462;50.764;4.332;2022-09-20T16:28:54;17.20;99.90
25582;DHT22;13462;50.764;4.332;2022-09-20T16:31:40;17.10;99.90
25582;DHT22;13462;50.764;4.332;2022-09-20T16:34:19;17.00;99.90
25582;DHT22;13462;50.764;4.332;2022-09-20T16:36:50;16.80;99.90
25582;DHT22;13462;50.764;4.332;2022-09-20T16:39:17;16.70;99.90
25582;DHT22;13462;50.764;4.332;2022-09-20T16:41:51;16.60;99.90
25582;DHT22;13462;50.764;4.332;2022-09-20T16:44:49;16.50;99.90
25582;DHT22;13462;50.764;4.332;2022-09-20T16:47:15;16.40;99.90
25582;DHT22;13462;50.764;4.332;2022-09-20T16:49:46;16.30;99.90
25582;DHT22;13462;50.764;4.332;2022-09-20T16:52:13;16.20;99.90
25582;DHT22;13462;50.764;4.332;2022-09-20T16:54:39;16.10;99.90
25582;DHT22;13462;50.764;4.332;2022-09-20T16:57:05;16.00;99.90
25582;DHT22;13462;50.764;4.332;2022-09-20T16:59:31;16.10;99.90
25582;DHT22;13462;50.764;4.332;2022-09-20T17:01:56;16.00;99.90
25582;DHT22;13462;50.764;4.332;2022-09-20T17:04:22;15.70;99.90
25582;DHT22;13462;50.764;4.332;2022-09-20T17:06:49;15.60;99.90
25582;DHT22;13462;50.764;4.332;2022-09-20T17:09:18;15.50;99.90
25582;DHT22;13462;50.764;4.332;2022-09-20T17:11:48;15.40;99.90
25582;DHT22;13462;50.764;4.332;2022-09-20T17:14:15;15.10;99.90
25582;DHT22;13462;50.764;4.332;2022-09-20T17:16:42;14.90;99.90
25582;DHT22;13462;50.764;4.332;2022-09-20T17:19:13;14.80;99.90
25582;DHT22;13462;50.764;4.332;2022-09-20T17:21:41;14.80;99.90
25582;DHT22;13462;50.764;4.332;2022-09-20T17:24:17;14.70;99.90
25582;DHT22;13462;50.764;4.332;2022-09-20T17:26:44;14.60;99.90
25582;DHT22;13462;50.764;4.332;2022-09-20T17:29:12;14.50;99.90
25582;DHT22;13462;50.764;4.332;2022-09-20T17:31:45;14.30;99.90
25582;DHT22;13462;50.764;4.332;2022-09-20T17:34:16;14.20;99.90
25582;DHT22;13462;50.764;4.332;2022-09-20T17:36:46;14.10;99.90
25582;DHT22;13462;50.764;4.332;2022-09-20T17:39:13;14.00;99.90
25582;DHT22;13462;50.764;4.332;2022-09-20T17:41:41;14.00;99.90
25582;DHT22;13462;50.764;4.332;2022-09-20T17:44:07;13.90;99.90
25582;DHT22;13462;50.764;4.332;2022-09-20T17:46:36;13.80;99.90
25582;DHT22;13462;50.764;4.332;2022-09-20T17:49:12;13.70;99.90
25582;DHT22;13462;50.764;4.332;2022-09-20T17:51:40;13.70;99.90
25582;DHT22;13462;50.764;4.332;2022-09-20T17:54:07;13.50;99.90
25582;DHT22;13462;50.764;4.332;2022-09-20T17:56:37;13.40;99.90
25582;DHT22;13462;50.764;4.332;2022-09-20T17:59:04;13.40;99.90
25582;DHT22;13462;50.764;4.332;2022-09-20T18:01:32;13.20;99.90
25582;DHT22;13462;50.764;4.332;2022-09-20T18:04:00;13.20;99.90
25582;DHT22;13462;50.764;4.332;2022-09-20T18:06:33;13.10;99.90
25582;DHT22;13462;50.764;4.332;2022-09-20T18:09:05;13.00;99.90
25582;DHT22;13462;50.764;4.332;2022-09-20T18:11:37;12.90;99.90
25582;DHT22;13462;50.764;4.332;2022-09-20T18:14:05;12.90;99.90
25582;DHT22;13462;50.764;4.332;2022-09-20T18:16:31;12.80;99.90
25582;DHT22;13462;50.764;4.332;2022-09-20T18:19:01;12.70;99.90
25582;DHT22;13462;50.764;4.332;2022-09-20T18:21:49;12.70;99.90
25582;DHT22;13462;50.764;4.332;2022-09-20T18:24:15;12.50;99.90
25582;DHT22;13462;50.764;4.332;2022-09-20T18:26:44;12.50;99.90
25582;DHT22;13462;50.764;4.332;2022-09-20T18:29:13;12.40;99.90
25582;DHT22;13462;50.764;4.332;2022-09-20T18:31:48;12.30;99.90
25582;DHT22;13462;50.764;4.332;2022-09-20T18:34:18;12.20;99.90
25582;DHT22;13462;50.764;4.332;2022-09-20T18:36:48;12.20;99.90
25582;DHT22;13462;50.764;4.332;2022-09-20T18:39:26;12.10;99.90
25582;DHT22;13462;50.764;4.332;2022-09-20T18:41:52;12.10;99.90
25582;DHT22;13462;50.764;4.332;2022-09-20T18:44:19;12.10;99.90
25582;DHT22;13462;50.764;4.332;2022-09-20T18:46:46;12.10;99.90
25582;DHT22;13462;50.764;4.332;2022-09-20T18:49:13;12.10;99.90
25582;DHT22;13462;50.764;4.332;2022-09-20T18:51:43;12.10;99.90
25582;DHT22;13462;50.764;4.332;2022-09-20T18:54:10;12.00;99.90
25582;DHT22;13462;50.764;4.332;2022-09-20T18:56:39;11.90;99.90
25582;DHT22;13462;50.764;4.332;2022-09-20T18:59:12;11.90;99.90
25582;DHT22;13462;50.764;4.332;2022-09-20T19:04:39;11.80;99.90
25582;DHT22;13462;50.764;4.332;2022-09-20T19:07:38;11.70;99.90
25582;DHT22;13462;50.764;4.332;2022-09-20T19:13:14;11.60;99.90
25582;DHT22;13462;50.764;4.332;2022-09-20T19:21:27;11.30;99.90
25582;DHT22;13462;50.764;4.332;2022-09-20T19:26:49;11.40;99.90
25582;DHT22;13462;50.764;4.332;2022-09-20T19:29:26;11.30;99.90
25582;DHT22;13462;50.764;4.332;2022-09-20T19:31:57;11.10;99.90
25582;DHT22;13462;50.764;4.332;2022-09-20T19:34:25;11.10;99.90
25582;DHT22;13462;50.764;4.332;2022-09-20T19:42:54;11.10;99.90
25582;DHT22;13462;50.764;4.332;2022-09-20T19:50:50;11.00;99.90
25582;DHT22;13462;50.764;4.332;2022-09-20T19:53:21;10.90;99.90
25582;DHT22;13462;50.764;4.332;2022-09-20T19:58:40;10.90;99.90
25582;DHT22;13462;50.764;4.332;2022-09-20T20:01:11;10.90;99.90
25582;DHT22;13462;50.764;4.332;2022-09-20T20:03:37;10.80;99.90
25582;DHT22;13462;50.764;4.332;2022-09-20T20:06:20;10.70;99.90
25582;DHT22;13462;50.764;4.332;2022-09-20T20:18:41;10.70;99.90
25582;DHT22;13462;50.764;4.332;2022-09-20T20:21:32;10.60;99.90
25582;DHT22;13462;50.764;4.332;2022-09-20T20:24:15;10.60;99.90
25582;DHT22;13462;50.764;4.332;2022-09-20T20:26:49;10.50;99.90
25582;DHT22;13462;50.764;4.332;2022-09-20T20:29:15;10.50;99.90
25582;DHT22;13462;50.764;4.332;2022-09-20T20:31:41;10.50;99.90
25582;DHT22;13462;50.764;4.332;2022-09-20T20:34:07;10.40;99.90
25582;DHT22;13462;50.764;4.332;2022-09-20T20:36:33;10.40;99.90
25582;DHT22;13462;50.764;4.332;2022-09-20T20:41:35;10.60;99.90
25582;DHT22;13462;50.764;4.332;2022-09-20T20:44:10;10.60;99.90
25582;DHT22;13462;50.764;4.332;2022-09-20T20:46:37;10.60;99.90
25582;DHT22;13462;50.764;4.332;2022-09-20T20:49:05;10.50;99.90
25582;DHT22;13462;50.764;4.332;2022-09-20T20:51:42;10.50;99.90
25582;DHT22;13462;50.764;4.332;2022-09-20T20:54:12;10.40;99.90
25582;DHT22;13462;50.764;4.332;2022-09-20T20:56:44;10.40;99.90
25582;DHT22;13462;50.764;4.332;2022-09-20T20:59:12;10.40;99.90
25582;DHT22;13462;50.764;4.332;2022-09-20T21:01:40;10.40;99.90
25582;DHT22;13462;50.764;4.332;2022-09-20T21:04:15;10.40;99.90
25582;DHT22;13462;50.764;4.332;2022-09-20T21:06:41;10.40;99.90
25582;DHT22;13462;50.764;4.332;2022-09-20T21:09:09;10.30;99.90
25582;DHT22;13462;50.764;4.332;2022-09-20T21:11:44;10.30;99.90
25582;DHT22;13462;50.764;4.332;2022-09-20T21:14:12;10.30;99.90
25582;DHT22;13462;50.764;4.332;2022-09-20T21:16:41;10.40;99.90
25582;DHT22;13462;50.764;4.332;2022-09-20T21:19:09;10.40;99.90
25582;DHT22;13462;50.764;4.332;2022-09-20T21:21:45;10.30;99.90
25582;DHT22;13462;50.764;4.332;2022-09-20T21:24:14;10.20;99.90
25582;DHT22;13462;50.764;4.332;2022-09-20T21:27:17;10.20;99.90
25582;DHT22;13462;50.764;4.332;2022-09-20T21:29:43;10.10;99.90
25582;DHT22;13462;50.764;4.332;2022-09-20T21:32:09;10.20;99.90
25582;DHT22;13462;50.764;4.332;2022-09-20T21:34:35;10.20;99.90
25582;DHT22;13462;50.764;4.332;2022-09-20T21:37:00;10.10;99.90